sensor_id;sensor_type;location;lat;lon;timestamp;pressure;altitude;pressure_sealevel;temperature;humidity
15260;BME280;34462;51.368;12.364;2023-01-26T00:00:08;18846.56;;;-141.84;76.24
15260;BME280;34462;51.368;12.364;2023-01-26T00:02:36;18832.34;;;-141.84;76.54
15260;BME280;34462;51.368;12.364;2023-01-26T00:05:05;18809.97;;;-141.84;76.58
15260;BME280;34462;51.368;12.364;2023-01-26T00:07:34;18862.81;;;-141.84;76.78
15260;BME280;34462;51.368;12.364;2023-01-26T00:10:03;18803.88;;;-141.84;76.78
15260;BME280;34462;51.368;12.364;2023-01-26T00:12:31;18830.31;;;-141.84;76.58
15260;BME280;34462;51.368;12.364;2023-01-26T00:15:00;18830.31;;;-141.84;76.39
15260;BME280;34462;51.368;12.364;2023-01-26T00:17:28;18820.16;;;-141.84;75.95
15260;BME280;34462;51.368;12.364;2023-01-26T00:19:57;18830.31;;;-141.84;76.40
15260;BME280;34462;51.368;12.364;2023-01-26T00:22:26;18832.34;;;-141.84;76.84
15260;BME280;34462;51.368;12.364;2023-01-26T00:24:54;18807.94;;;-141.84;77.23
15260;BME280;34462;51.368;12.364;2023-01-26T00:27:22;18826.25;;;-141.84;76.23
15260;BME280;34462;51.368;12.364;2023-01-26T00:29:51;18828.28;;;-141.84;75.91
15260;BME280;34462;51.368;12.364;2023-01-26T00:32:20;18826.25;;;-141.84;76.68
15260;BME280;34462;51.368;12.364;2023-01-26T00:34:48;18814.03;;;-141.84;77.19
15260;BME280;34462;51.368;12.364;2023-01-26T00:37:16;18779.50;;;-141.84;77.13
15260;BME280;34462;51.368;12.364;2023-01-26T00:39:45;18832.34;;;-141.84;77.14
15260;BME280;34462;51.368;12.364;2023-01-26T00:42:13;18803.88;;;-141.84;77.43
15260;BME280;34462;51.368;12.364;2023-01-26T00:44:42;18793.72;;;-141.84;78.02
15260;BME280;34462;51.368;12.364;2023-01-26T00:47:11;18814.03;;;-141.84;77.60
15260;BME280;34462;51.368;12.364;2023-01-26T00:49:41;18828.28;;;-141.84;77.42
15260;BME280;34462;51.368;12.364;2023-01-26T00:52:10;18820.16;;;-141.84;76.85
15260;BME280;34462;51.368;12.364;2023-01-26T00:54:38;18822.19;;;-141.84;77.52
15260;BME280;34462;51.368;12.364;2023-01-26T00:57:07;18805.91;;;-141.84;77.96
15260;BME280;34462;51.368;12.364;2023-01-26T00:59:36;18842.50;;;-141.84;76.83
15260;BME280;34462;51.368;12.364;2023-01-26T01:02:04;18809.97;;;-141.84;77.42
15260;BME280;34462;51.368;12.364;2023-01-26T01:04:32;18797.78;;;-141.84;77.76
15260;BME280;34462;51.368;12.364;2023-01-26T01:07:02;18814.03;;;-141.84;77.64
15260;BME280;34462;51.368;12.364;2023-01-26T01:09:30;18822.19;;;-141.84;77.71
15260;BME280;34462;51.368;12.364;2023-01-26T01:11:58;18832.34;;;-141.84;78.20
15260;BME280;34462;51.368;12.364;2023-01-26T01:14:27;18777.47;;;-141.84;78.60
15260;BME280;34462;51.368;12.364;2023-01-26T01:16:55;18785.59;;;-141.84;78.50
15260;BME280;34462;51.368;12.364;2023-01-26T01:19:23;18803.88;;;-141.84;77.67
15260;BME280;34462;51.368;12.364;2023-01-26T01:21:51;18807.94;;;-141.84;77.14
15260;BME280;34462;51.368;12.364;2023-01-26T01:24:21;18830.31;;;-141.84;77.58
15260;BME280;34462;51.368;12.364;2023-01-26T01:26:49;18799.81;;;-141.84;77.11
15260;BME280;34462;51.368;12.364;2023-01-26T01:29:17;18793.72;;;-141.84;77.48
15260;BME280;34462;51.368;12.364;2023-01-26T01:31:45;18832.34;;;-141.84;77.29
15260;BME280;34462;51.368;12.364;2023-01-26T01:34:13;18830.31;;;-141.84;77.78
15260;BME280;34462;51.368;12.364;2023-01-26T01:36:42;18775.44;;;-141.84;77.97
15260;BME280;34462;51.368;12.364;2023-01-26T01:39:10;18801.84;;;-141.84;78.09
15260;BME280;34462;51.368;12.364;2023-01-26T01:41:39;18797.78;;;-141.84;78.60
15260;BME280;34462;51.368;12.364;2023-01-26T01:44:17;18755.13;;;-141.84;79.18
15260;BME280;34462;51.368;12.364;2023-01-26T01:46:51;18797.78;;;-141.84;79.02
15260;BME280;34462;51.368;12.364;2023-01-26T01:49:26;18795.75;;;-141.84;78.86
15260;BME280;34462;51.368;12.364;2023-01-26T01:51:59;18807.94;;;-141.84;78.86
15260;BME280;34462;51.368;12.364;2023-01-26T01:54:33;18820.16;;;-141.84;78.34
15260;BME280;34462;51.368;12.364;2023-01-26T01:57:09;18830.31;;;-141.84;78.46
15260;BME280;34462;51.368;12.364;2023-01-26T01:59:48;18783.56;;;-141.84;78.22
15260;BME280;34462;51.368;12.364;2023-01-26T02:02:19;18793.72;;;-141.84;77.69
15260;BME280;34462;51.368;12.364;2023-01-26T02:04:47;18814.03;;;-141.84;77.85
15260;BME280;34462;51.368;12.364;2023-01-26T02:07:16;18799.81;;;-141.84;78.34
15260;BME280;34462;51.368;12.364;2023-01-26T02:09:44;18807.94;;;-141.84;78.66
15260;BME280;34462;51.368;12.364;2023-01-26T02:12:33;18787.63;;;-141.84;78.63
15260;BME280;34462;51.368;12.364;2023-01-26T02:15:03;18803.88;;;-141.84;78.98
15260;BME280;34462;51.368;12.364;2023-01-26T02:17:32;18777.47;;;-141.84;79.32
15260;BME280;34462;51.368;12.364;2023-01-26T02:20:06;18787.63;;;-141.84;79.34
15260;BME280;34462;51.368;12.364;2023-01-26T02:22:47;18793.72;;;-141.84;79.52
15260;BME280;34462;51.368;12.364;2023-01-26T02:25:30;18755.13;;;-141.84;79.00
15260;BME280;34462;51.368;12.364;2023-01-26T02:28:03;18785.59;;;-141.84;78.98
15260;BME280;34462;51.368;12.364;2023-01-26T02:30:32;18773.41;;;-141.84;78.96
15260;BME280;34462;51.368;12.364;2023-01-26T02:33:00;18773.41;;;-141.84;78.66
15260;BME280;34462;51.368;12.364;2023-01-26T02:35:28;18783.56;;;-141.84;78.02
15260;BME280;34462;51.368;12.364;2023-01-26T02:37:57;18803.88;;;-141.84;77.81
15260;BME280;34462;51.368;12.364;2023-01-26T02:40:43;18765.28;;;-141.84;77.55
15260;BME280;34462;51.368;12.364;2023-01-26T02:43:16;18793.72;;;-141.84;77.69
15260;BME280;34462;51.368;12.364;2023-01-26T02:45:43;18765.28;;;-141.84;77.96
15260;BME280;34462;51.368;12.364;2023-01-26T02:48:11;18824.22;;;-141.84;77.86
15260;BME280;34462;51.368;12.364;2023-01-26T02:50:39;18749.03;;;-141.84;77.99
15260;BME280;34462;51.368;12.364;2023-01-26T02:53:07;18799.81;;;-141.84;78.42
15260;BME280;34462;51.368;12.364;2023-01-26T02:55:35;18783.56;;;-141.84;78.30
15260;BME280;34462;51.368;12.364;2023-01-26T02:58:03;18785.59;;;-141.84;78.59
15260;BME280;34462;51.368;12.364;2023-01-26T03:00:35;18767.31;;;-141.84;79.03
15260;BME280;34462;51.368;12.364;2023-01-26T03:03:12;18777.47;;;-141.84;78.85
15260;BME280;34462;51.368;12.364;2023-01-26T03:05:41;18789.66;;;-141.84;79.01
15260;BME280;34462;51.368;12.364;2023-01-26T03:08:09;18777.47;;;-141.84;78.38
15260;BME280;34462;51.368;12.364;2023-01-26T03:10:39;18795.75;;;-141.84;78.99
15260;BME280;34462;51.368;12.364;2023-01-26T03:13:07;18787.63;;;-141.84;79.02
15260;BME280;34462;51.368;12.364;2023-01-26T03:15:37;18791.69;;;-141.84;79.35
15260;BME280;34462;51.368;12.364;2023-01-26T03:18:21;18795.75;;;-141.84;78.48
15260;BME280;34462;51.368;12.364;2023-01-26T03:21:12;18789.66;;;-141.84;78.68
15260;BME280;34462;51.368;12.364;2023-01-26T03:23:58;18761.22;;;-141.84;79.23
15260;BME280;34462;51.368;12.364;2023-01-26T03:26:44;18793.72;;;-141.84;78.82
15260;BME280;34462;51.368;12.364;2023-01-26T03:29:31;18822.19;;;-141.84;79.14
15260;BME280;34462;51.368;12.364;2023-01-26T03:32:01;18777.47;;;-141.84;79.52
15260;BME280;34462;51.368;12.364;2023-01-26T03:34:29;18793.72;;;-141.84;78.94
15260;BME280;34462;51.368;12.364;2023-01-26T03:36:57;18773.41;;;-141.84;79.38
15260;BME280;34462;51.368;12.364;2023-01-26T03:39:26;18773.41;;;-141.84;79.77
15260;BME280;34462;51.368;12.364;2023-01-26T03:42:11;18763.25;;;-141.84;79.83
15260;BME280;34462;51.368;12.364;2023-01-26T03:44:57;18757.16;;;-141.84;80.60
15260;BME280;34462;51.368;12.364;2023-01-26T03:47:43;18730.75;;;-141.84;81.36
15260;BME280;34462;51.368;12.364;2023-01-26T03:50:29;18740.91;;;-141.84;81.75
15260;BME280;34462;51.368;12.364;2023-01-26T03:53:17;18740.91;;;-141.84;82.24
15260;BME280;34462;51.368;12.364;2023-01-26T03:56:05;18726.69;;;-141.84;82.17
15260;BME280;34462;51.368;12.364;2023-01-26T03:58:50;18726.69;;;-141.84;82.28
15260;BME280;34462;51.368;12.364;2023-01-26T04:01:19;18769.34;;;-141.84;81.25
15260;BME280;34462;51.368;12.364;2023-01-26T04:03:55;18753.09;;;-141.84;80.40
15260;BME280;34462;51.368;12.364;2023-01-26T04:06:43;18767.31;;;-141.84;80.56
15260;BME280;34462;51.368;12.364;2023-01-26T04:09:30;18773.41;;;-141.84;80.23
15260;BME280;34462;51.368;12.364;2023-01-26T04:11:58;18732.78;;;-141.84;80.77
15260;BME280;34462;51.368;12.364;2023-01-26T04:14:27;18744.97;;;-141.84;81.36
15260;BME280;34462;51.368;12.364;2023-01-26T04:17:17;18747.00;;;-141.84;82.25
15260;BME280;34462;51.368;12.364;2023-01-26T04:20:06;18742.94;;;-141.84;82.55
15260;BME280;34462;51.368;12.364;2023-01-26T04:22:52;18730.75;;;-141.84;81.77
15260;BME280;34462;51.368;12.364;2023-01-26T04:25:21;18749.03;;;-141.84;82.03
15260;BME280;34462;51.368;12.364;2023-01-26T04:27:49;18724.66;;;-141.84;82.43
15260;BME280;34462;51.368;12.364;2023-01-26T04:30:18;18742.94;;;-141.84;82.49
15260;BME280;34462;51.368;12.364;2023-01-26T04:32:46;18726.69;;;-141.84;82.74
15260;BME280;34462;51.368;12.364;2023-01-26T04:35:16;18720.59;;;-141.84;83.04
15260;BME280;34462;51.368;12.364;2023-01-26T04:37:44;18720.59;;;-141.84;82.34
15260;BME280;34462;51.368;12.364;2023-01-26T04:40:12;18728.72;;;-141.84;82.01
15260;BME280;34462;51.368;12.364;2023-01-26T04:42:41;18736.84;;;-141.84;82.20
15260;BME280;34462;51.368;12.364;2023-01-26T04:45:10;18734.81;;;-141.84;82.46
15260;BME280;34462;51.368;12.364;2023-01-26T04:47:38;18734.81;;;-141.84;82.87
15260;BME280;34462;51.368;12.364;2023-01-26T04:50:08;18716.53;;;-141.84;83.27
15260;BME280;34462;51.368;12.364;2023-01-26T04:52:38;18724.66;;;-141.84;83.29
15260;BME280;34462;51.368;12.364;2023-01-26T04:55:07;18728.72;;;-141.84;83.27
15260;BME280;34462;51.368;12.364;2023-01-26T04:57:36;18744.97;;;-141.84;82.55
15260;BME280;34462;51.368;12.364;2023-01-26T05:00:06;18736.84;;;-141.84;81.71
15260;BME280;34462;51.368;12.364;2023-01-26T05:02:36;18781.53;;;-141.84;81.77
15260;BME280;34462;51.368;12.364;2023-01-26T05:05:07;18738.88;;;-141.84;82.58
15260;BME280;34462;51.368;12.364;2023-01-26T05:07:35;18718.56;;;-141.84;82.00
15260;BME280;34462;51.368;12.364;2023-01-26T05:10:06;18720.59;;;-141.84;82.35
15260;BME280;34462;51.368;12.364;2023-01-26T05:12:34;18690.09;;;-141.84;82.19
15260;BME280;34462;51.368;12.364;2023-01-26T05:15:04;18696.19;;;-141.84;82.56
15260;BME280;34462;51.368;12.364;2023-01-26T05:17:33;18696.19;;;-141.84;83.22
15260;BME280;34462;51.368;12.364;2023-01-26T05:20:02;18724.66;;;-141.84;82.74
15260;BME280;34462;51.368;12.364;2023-01-26T05:22:31;18700.25;;;-141.84;83.11
15260;BME280;34462;51.368;12.364;2023-01-26T05:24:59;18696.19;;;-141.84;83.04
15260;BME280;34462;51.368;12.364;2023-01-26T05:27:28;18728.72;;;-141.84;83.14
15260;BME280;34462;51.368;12.364;2023-01-26T05:29:56;18688.06;;;-141.84;82.88
15260;BME280;34462;51.368;12.364;2023-01-26T05:32:26;18712.47;;;-141.84;82.96
15260;BME280;34462;51.368;12.364;2023-01-26T05:34:55;18718.56;;;-141.84;82.28
15260;BME280;34462;51.368;12.364;2023-01-26T05:37:24;18706.38;;;-141.84;82.13
15260;BME280;34462;51.368;12.364;2023-01-26T05:39:53;18704.31;;;-141.84;82.39
15260;BME280;34462;51.368;12.364;2023-01-26T05:42:22;18700.25;;;-141.84;82.79
15260;BME280;34462;51.368;12.364;2023-01-26T05:44:52;18716.53;;;-141.84;83.08
15260;BME280;34462;51.368;12.364;2023-01-26T05:47:20;18698.22;;;-141.84;82.45
15260;BME280;34462;51.368;12.364;2023-01-26T05:49:48;18706.38;;;-141.84;82.55
15260;BME280;34462;51.368;12.364;2023-01-26T05:52:19;18724.66;;;-141.84;82.63
15260;BME280;34462;51.368;12.364;2023-01-26T05:54:47;18700.25;;;-141.84;82.79
15260;BME280;34462;51.368;12.364;2023-01-26T05:57:15;18742.94;;;-141.84;82.92
15260;BME280;34462;51.368;12.364;2023-01-26T05:59:43;18712.47;;;-141.84;82.57
15260;BME280;34462;51.368;12.364;2023-01-26T06:02:13;18710.44;;;-141.84;82.81
15260;BME280;34462;51.368;12.364;2023-01-26T06:04:41;18732.78;;;-141.84;82.33
15260;BME280;34462;51.368;12.364;2023-01-26T06:07:10;18747.00;;;-141.84;82.05
15260;BME280;34462;51.368;12.364;2023-01-26T06:09:39;18686.03;;;-141.84;82.17
15260;BME280;34462;51.368;12.364;2023-01-26T06:12:13;18704.31;;;-141.84;82.51
15260;BME280;34462;51.368;12.364;2023-01-26T06:14:42;18708.41;;;-141.84;82.11
15260;BME280;34462;51.368;12.364;2023-01-26T06:17:16;18696.19;;;-141.84;82.13
15260;BME280;34462;51.368;12.364;2023-01-26T06:19:44;18726.69;;;-141.84;82.37
15260;BME280;34462;51.368;12.364;2023-01-26T06:22:13;18726.69;;;-141.84;82.47
15260;BME280;34462;51.368;12.364;2023-01-26T06:24:42;18712.47;;;-141.84;82.49
15260;BME280;34462;51.368;12.364;2023-01-26T06:27:13;18740.91;;;-141.84;81.94
15260;BME280;34462;51.368;12.364;2023-01-26T06:29:42;18704.31;;;-141.84;81.59
15260;BME280;34462;51.368;12.364;2023-01-26T06:32:13;18712.47;;;-141.84;81.53
15260;BME280;34462;51.368;12.364;2023-01-26T06:34:42;18738.88;;;-141.84;81.38
15260;BME280;34462;51.368;12.364;2023-01-26T06:37:10;18722.63;;;-141.84;81.23
15260;BME280;34462;51.368;12.364;2023-01-26T06:39:39;18700.25;;;-141.84;81.27
15260;BME280;34462;51.368;12.364;2023-01-26T06:42:08;18700.25;;;-141.84;81.42
15260;BME280;34462;51.368;12.364;2023-01-26T06:44:36;18722.63;;;-141.84;81.69
15260;BME280;34462;51.368;12.364;2023-01-26T06:47:05;18747.00;;;-141.84;81.54
15260;BME280;34462;51.368;12.364;2023-01-26T06:49:35;18740.91;;;-141.84;80.82
15260;BME280;34462;51.368;12.364;2023-01-26T06:52:18;18736.84;;;-141.84;80.91
15260;BME280;34462;51.368;12.364;2023-01-26T06:54:48;18751.06;;;-141.84;81.13
15260;BME280;34462;51.368;12.364;2023-01-26T06:57:17;18740.91;;;-141.84;81.60
15260;BME280;34462;51.368;12.364;2023-01-26T06:59:45;18694.16;;;-141.84;81.15
15260;BME280;34462;51.368;12.364;2023-01-26T07:02:17;18728.72;;;-141.84;80.91
15260;BME280;34462;51.368;12.364;2023-01-26T07:04:48;18747.00;;;-141.84;79.94
15260;BME280;34462;51.368;12.364;2023-01-26T07:07:17;18724.66;;;-141.84;79.49
15260;BME280;34462;51.368;12.364;2023-01-26T07:09:45;18728.72;;;-141.84;79.51
15260;BME280;34462;51.368;12.364;2023-01-26T07:12:13;18744.97;;;-141.84;79.08
15260;BME280;34462;51.368;12.364;2023-01-26T07:14:41;18736.84;;;-141.84;78.76
15260;BME280;34462;51.368;12.364;2023-01-26T07:17:09;18753.09;;;-141.84;78.89
15260;BME280;34462;51.368;12.364;2023-01-26T07:19:38;18736.84;;;-141.84;78.84
15260;BME280;34462;51.368;12.364;2023-01-26T07:22:07;18765.28;;;-141.84;79.01
15260;BME280;34462;51.368;12.364;2023-01-26T07:24:35;18728.72;;;-141.84;78.54
15260;BME280;34462;51.368;12.364;2023-01-26T07:27:04;18726.69;;;-141.84;78.73
15260;BME280;34462;51.368;12.364;2023-01-26T07:29:32;18749.03;;;-141.84;78.75
15260;BME280;34462;51.368;12.364;2023-01-26T07:32:00;18755.13;;;-141.84;77.80
15260;BME280;34462;51.368;12.364;2023-01-26T07:34:28;18757.16;;;-141.84;77.96
15260;BME280;34462;51.368;12.364;2023-01-26T07:36:57;18763.25;;;-141.84;78.20
15260;BME280;34462;51.368;12.364;2023-01-26T07:39:26;18761.22;;;-141.84;78.15
15260;BME280;34462;51.368;12.364;2023-01-26T07:41:54;18779.50;;;-141.84;78.05
15260;BME280;34462;51.368;12.364;2023-01-26T07:44:22;18753.09;;;-141.84;76.35
15260;BME280;34462;51.368;12.364;2023-01-26T07:46:50;18757.16;;;-141.84;76.13
15260;BME280;34462;51.368;12.364;2023-01-26T07:49:20;18767.31;;;-141.84;76.33
15260;BME280;34462;51.368;12.364;2023-01-26T07:51:48;18779.50;;;-141.84;75.58
15260;BME280;34462;51.368;12.364;2023-01-26T07:54:18;18793.72;;;-141.84;76.07
15260;BME280;34462;51.368;12.364;2023-01-26T07:56:51;18787.63;;;-141.84;76.48
15260;BME280;34462;51.368;12.364;2023-01-26T07:59:20;18722.63;;;-141.84;77.07
15260;BME280;34462;51.368;12.364;2023-01-26T08:01:49;18777.47;;;-141.84;76.99
15260;BME280;34462;51.368;12.364;2023-01-26T08:04:18;18814.03;;;-141.84;76.84
15260;BME280;34462;51.368;12.364;2023-01-26T08:06:46;18767.31;;;-141.84;77.25
15260;BME280;34462;51.368;12.364;2023-01-26T08:09:15;18771.38;;;-141.84;76.97
15260;BME280;34462;51.368;12.364;2023-01-26T08:11:44;18799.81;;;-141.84;76.22
15260;BME280;34462;51.368;12.364;2023-01-26T08:14:13;18791.69;;;-141.84;76.51
15260;BME280;34462;51.368;12.364;2023-01-26T08:16:41;18771.38;;;-141.84;76.67
15260;BME280;34462;51.368;12.364;2023-01-26T08:19:11;18791.69;;;-141.84;76.96
15260;BME280;34462;51.368;12.364;2023-01-26T08:21:39;18789.66;;;-141.84;76.65
15260;BME280;34462;51.368;12.364;2023-01-26T08:24:10;18763.25;;;-141.84;76.02
15260;BME280;34462;51.368;12.364;2023-01-26T08:26:38;18765.28;;;-141.84;76.30
15260;BME280;34462;51.368;12.364;2023-01-26T08:29:06;18755.13;;;-141.84;75.95
15260;BME280;34462;51.368;12.364;2023-01-26T08:31:37;18789.66;;;-141.84;76.88
15260;BME280;34462;51.368;12.364;2023-01-26T08:34:05;18767.31;;;-141.84;76.74
15260;BME280;34462;51.368;12.364;2023-01-26T08:36:33;18744.97;;;-141.84;77.27
15260;BME280;34462;51.368;12.364;2023-01-26T08:39:01;18777.47;;;-141.84;77.64
15260;BME280;34462;51.368;12.364;2023-01-26T08:41:30;18734.81;;;-141.84;77.92
15260;BME280;34462;51.368;12.364;2023-01-26T08:43:59;18805.91;;;-141.84;78.43
15260;BME280;34462;51.368;12.364;2023-01-26T08:46:27;18751.06;;;-141.84;77.80
15260;BME280;34462;51.368;12.364;2023-01-26T08:48:57;18755.13;;;-141.84;78.01
15260;BME280;34462;51.368;12.364;2023-01-26T08:51:26;18761.22;;;-141.84;78.31
15260;BME280;34462;51.368;12.364;2023-01-26T08:53:54;18777.47;;;-141.84;78.04
15260;BME280;34462;51.368;12.364;2023-01-26T08:56:22;18740.91;;;-141.84;78.08
15260;BME280;34462;51.368;12.364;2023-01-26T08:58:50;18763.25;;;-141.84;78.81
15260;BME280;34462;51.368;12.364;2023-01-26T09:01:19;18744.97;;;-141.84;79.56
15260;BME280;34462;51.368;12.364;2023-01-26T09:03:47;18751.06;;;-141.84;79.24
15260;BME280;34462;51.368;12.364;2023-01-26T09:06:19;18779.50;;;-141.84;78.78
15260;BME280;34462;51.368;12.364;2023-01-26T09:08:47;18757.16;;;-141.84;78.43
15260;BME280;34462;51.368;12.364;2023-01-26T09:11:15;18751.06;;;-141.84;78.85
15260;BME280;34462;51.368;12.364;2023-01-26T09:13:43;18757.16;;;-141.84;79.27
15260;BME280;34462;51.368;12.364;2023-01-26T09:16:18;18742.94;;;-141.84;78.81
15260;BME280;34462;51.368;12.364;2023-01-26T09:18:48;18775.44;;;-141.84;78.50
15260;BME280;34462;51.368;12.364;2023-01-26T09:21:18;18736.84;;;-141.84;78.82
15260;BME280;34462;51.368;12.364;2023-01-26T09:23:47;18749.03;;;-141.84;78.36
15260;BME280;34462;51.368;12.364;2023-01-26T09:26:16;18785.59;;;-141.84;78.09
15260;BME280;34462;51.368;12.364;2023-01-26T09:28:49;18744.97;;;-141.84;77.53
15260;BME280;34462;51.368;12.364;2023-01-26T09:31:17;18744.97;;;-141.84;77.08
15260;BME280;34462;51.368;12.364;2023-01-26T09:33:47;18785.59;;;-141.84;76.26
15260;BME280;34462;51.368;12.364;2023-01-26T09:36:17;18765.28;;;-141.84;76.40
15260;BME280;34462;51.368;12.364;2023-01-26T09:38:45;18753.09;;;-141.84;76.78
15260;BME280;34462;51.368;12.364;2023-01-26T09:41:39;18720.59;;;-141.84;77.39
15260;BME280;34462;51.368;12.364;2023-01-26T09:44:15;18765.28;;;-141.84;77.41
15260;BME280;34462;51.368;12.364;2023-01-26T09:47:01;18722.63;;;-141.84;77.16
15260;BME280;34462;51.368;12.364;2023-01-26T09:49:45;18755.13;;;-141.84;77.25
15260;BME280;34462;51.368;12.364;2023-01-26T09:52:24;18781.53;;;-141.84;77.49
15260;BME280;34462;51.368;12.364;2023-01-26T09:54:57;18785.59;;;-141.84;76.19
15260;BME280;34462;51.368;12.364;2023-01-26T09:57:35;18763.25;;;-141.84;76.44
15260;BME280;34462;51.368;12.364;2023-01-26T10:00:14;18789.66;;;-141.84;76.09
15260;BME280;34462;51.368;12.364;2023-01-26T10:02:59;18785.59;;;-141.84;76.49
15260;BME280;34462;51.368;12.364;2023-01-26T10:05:40;18771.38;;;-141.84;76.05
15260;BME280;34462;51.368;12.364;2023-01-26T10:08:15;18751.06;;;-141.84;76.10
15260;BME280;34462;51.368;12.364;2023-01-26T10:10:49;18751.06;;;-141.84;76.47
15260;BME280;34462;51.368;12.364;2023-01-26T10:13:21;18765.28;;;-141.84;76.26
15260;BME280;34462;51.368;12.364;2023-01-26T10:15:54;18759.19;;;-141.84;75.59
15260;BME280;34462;51.368;12.364;2023-01-26T10:18:30;18777.47;;;-141.84;74.97
15260;BME280;34462;51.368;12.364;2023-01-26T10:21:03;18771.38;;;-141.84;75.15
15260;BME280;34462;51.368;12.364;2023-01-26T10:23:35;18805.91;;;-141.84;75.55
15260;BME280;34462;51.368;12.364;2023-01-26T10:26:12;18779.50;;;-141.84;75.59
15260;BME280;34462;51.368;12.364;2023-01-26T10:28:43;18795.75;;;-141.84;75.50
15260;BME280;34462;51.368;12.364;2023-01-26T10:31:15;18785.59;;;-141.84;75.15
15260;BME280;34462;51.368;12.364;2023-01-26T10:33:50;18781.53;;;-141.84;74.61
15260;BME280;34462;51.368;12.364;2023-01-26T10:36:20;18822.19;;;-141.84;74.05
15260;BME280;34462;51.368;12.364;2023-01-26T10:38:51;18803.88;;;-141.84;74.20
15260;BME280;34462;51.368;12.364;2023-01-26T10:41:26;18771.38;;;-141.84;74.68
15260;BME280;34462;51.368;12.364;2023-01-26T10:43:58;18803.88;;;-141.84;72.67
15260;BME280;34462;51.368;12.364;2023-01-26T10:46:31;18801.84;;;-141.84;73.64
15260;BME280;34462;51.368;12.364;2023-01-26T10:49:02;18787.63;;;-141.84;74.22
15260;BME280;34462;51.368;12.364;2023-01-26T10:51:43;18840.47;;;-141.84;74.83
15260;BME280;34462;51.368;12.364;2023-01-26T10:54:22;18814.03;;;-141.84;73.71
15260;BME280;34462;51.368;12.364;2023-01-26T10:56:54;18809.97;;;-141.84;74.28
15260;BME280;34462;51.368;12.364;2023-01-26T10:59:31;18777.47;;;-141.84;74.54
15260;BME280;34462;51.368;12.364;2023-01-26T11:02:19;18777.47;;;-141.84;74.08
15260;BME280;34462;51.368;12.364;2023-01-26T11:05:20;18814.03;;;-141.84;73.58
15260;BME280;34462;51.368;12.364;2023-01-26T11:07:50;18812.00;;;-141.84;74.00
15260;BME280;34462;51.368;12.364;2023-01-26T11:10:28;18763.25;;;-141.84;74.98
15260;BME280;34462;51.368;12.364;2023-01-26T11:13:21;18830.31;;;-141.84;74.21
15260;BME280;34462;51.368;12.364;2023-01-26T11:16:00;18783.56;;;-141.84;74.38
15260;BME280;34462;51.368;12.364;2023-01-26T11:18:43;18812.00;;;-141.84;74.03
15260;BME280;34462;51.368;12.364;2023-01-26T11:21:19;18797.78;;;-141.84;74.68
15260;BME280;34462;51.368;12.364;2023-01-26T11:23:59;18783.56;;;-141.84;75.46
15260;BME280;34462;51.368;12.364;2023-01-26T11:27:16;18769.34;;;-141.84;75.99
15260;BME280;34462;51.368;12.364;2023-01-26T11:30:32;18759.19;;;-141.84;76.05
15260;BME280;34462;51.368;12.364;2023-01-26T11:33:15;18801.84;;;-141.84;76.41
15260;BME280;34462;51.368;12.364;2023-01-26T11:35:53;18761.22;;;-141.84;77.08
15260;BME280;34462;51.368;12.364;2023-01-26T11:38:38;18818.09;;;-141.84;77.08
15260;BME280;34462;51.368;12.364;2023-01-26T11:41:23;18779.50;;;-141.84;78.25
15260;BME280;34462;51.368;12.364;2023-01-26T11:44:14;18767.31;;;-141.84;78.22
15260;BME280;34462;51.368;12.364;2023-01-26T11:47:07;18773.41;;;-141.84;78.35
15260;BME280;34462;51.368;12.364;2023-01-26T11:50:17;18818.09;;;-141.84;77.87
15260;BME280;34462;51.368;12.364;2023-01-26T11:53:27;18775.44;;;-141.84;77.41
15260;BME280;34462;51.368;12.364;2023-01-26T11:56:15;18789.66;;;-141.84;75.85
15260;BME280;34462;51.368;12.364;2023-01-26T11:58:52;18775.44;;;-141.84;77.16
15260;BME280;34462;51.368;12.364;2023-01-26T12:01:29;18777.47;;;-141.84;77.69
15260;BME280;34462;51.368;12.364;2023-01-26T12:03:58;18793.72;;;-141.84;78.04
15260;BME280;34462;51.368;12.364;2023-01-26T12:06:35;18769.34;;;-141.84;77.94
15260;BME280;34462;51.368;12.364;2023-01-26T12:09:12;18797.78;;;-141.84;78.12
15260;BME280;34462;51.368;12.364;2023-01-26T12:11:53;18783.56;;;-141.84;78.65
15260;BME280;34462;51.368;12.364;2023-01-26T12:14:28;18747.00;;;-141.84;78.78
15260;BME280;34462;51.368;12.364;2023-01-26T12:17:38;18753.09;;;-141.84;78.38
15260;BME280;34462;51.368;12.364;2023-01-26T12:20:28;18753.09;;;-141.84;78.62
15260;BME280;34462;51.368;12.364;2023-01-26T12:23:08;18708.41;;;-141.84;78.92
15260;BME280;34462;51.368;12.364;2023-01-26T12:25:41;18765.28;;;-141.84;79.21
15260;BME280;34462;51.368;12.364;2023-01-26T12:28:18;18728.72;;;-141.84;79.56
15260;BME280;34462;51.368;12.364;2023-01-26T12:30:56;18785.59;;;-141.84;78.49
15260;BME280;34462;51.368;12.364;2023-01-26T12:33:31;18765.28;;;-141.84;78.59
15260;BME280;34462;51.368;12.364;2023-01-26T12:36:18;18747.00;;;-141.84;78.87
15260;BME280;34462;51.368;12.364;2023-01-26T12:39:14;18773.41;;;-141.84;79.14
15260;BME280;34462;51.368;12.364;2023-01-26T12:42:05;18781.53;;;-141.84;78.88
15260;BME280;34462;51.368;12.364;2023-01-26T12:44:40;18779.50;;;-141.84;78.98
15260;BME280;34462;51.368;12.364;2023-01-26T12:47:17;18775.44;;;-141.84;79.22
15260;BME280;34462;51.368;12.364;2023-01-26T12:49:57;18751.06;;;-141.84;79.68
15260;BME280;34462;51.368;12.364;2023-01-26T12:52:34;18720.59;;;-141.84;79.81
15260;BME280;34462;51.368;12.364;2023-01-26T12:55:15;18777.47;;;-141.84;80.10
15260;BME280;34462;51.368;12.364;2023-01-26T12:57:52;18712.47;;;-141.84;80.40
15260;BME280;34462;51.368;12.364;2023-01-26T13:00:24;18722.63;;;-141.84;80.25